sensor_id;sensor_type;location;lat;lon;timestamp;P1;durP1;ratioP1;P2;durP2;ratioP2
12986;SDS011;58897;51.960;5.582;2023-04-03T00:02:03;6.60;;;3.60;;
12986;SDS011;58897;51.960;5.582;2023-04-03T00:04:30;6.07;;;2.83;;
12986;SDS011;58897;51.960;5.582;2023-04-03T00:06:56;7.03;;;2.37;;
12986;SDS011;58897;51.960;5.582;2023-04-03T00:09:23;6.13;;;2.40;;
12986;SDS011;58897;51.960;5.582;2023-04-03T00:11:49;6.80;;;2.77;;
12986;SDS011;58897;51.960;5.582;2023-04-03T00:14:16;9.23;;;3.73;;
12986;SDS011;58897;51.960;5.582;2023-04-03T00:16:42;10.67;;;4.23;;
12986;SDS011;58897;51.960;5.582;2023-04-03T00:19:09;5.97;;;2.73;;
12986;SDS011;58897;51.960;5.582;2023-04-03T00:21:38;2.70;;;1.70;;
12986;SDS011;58897;51.960;5.582;2023-04-03T00:24:05;4.20;;;2.27;;
12986;SDS011;58897;51.960;5.582;2023-04-03T00:26:33;5.30;;;3.33;;
12986;SDS011;58897;51.960;5.582;2023-04-03T00:28:59;5.97;;;2.40;;
12986;SDS011;58897;51.960;5.582;2023-04-03T00:31:25;4.17;;;2.50;;
12986;SDS011;58897;51.960;5.582;2023-04-03T00:33:52;5.13;;;2.63;;
12986;SDS011;58897;51.960;5.582;2023-04-03T00:36:18;6.67;;;3.50;;
12986;SDS011;58897;51.960;5.582;2023-04-03T00:38:45;6.03;;;2.43;;
12986;SDS011;58897;51.960;5.582;2023-04-03T00:41:12;3.60;;;2.10;;
12986;SDS011;58897;51.960;5.582;2023-04-03T00:43:38;4.73;;;2.73;;
12986;SDS011;58897;51.960;5.582;2023-04-03T00:46:05;4.67;;;1.60;;
12986;SDS011;58897;51.960;5.582;2023-04-03T00:48:33;5.10;;;2.43;;
12986;SDS011;58897;51.960;5.582;2023-04-03T00:51:07;4.83;;;2.27;;
12986;SDS011;58897;51.960;5.582;2023-04-03T00:53:59;5.37;;;3.10;;
12986;SDS011;58897;51.960;5.582;2023-04-03T00:56:28;4.20;;;2.30;;
12986;SDS011;58897;51.960;5.582;2023-04-03T00:59:00;4.47;;;2.10;;
12986;SDS011;58897;51.960;5.582;2023-04-03T01:01:36;4.70;;;2.63;;
12986;SDS011;58897;51.960;5.582;2023-04-03T01:04:04;7.57;;;2.93;;
12986;SDS011;58897;51.960;5.582;2023-04-03T01:06:34;3.90;;;2.43;;
12986;SDS011;58897;51.960;5.582;2023-04-03T01:09:03;3.73;;;2.37;;
12986;SDS011;58897;51.960;5.582;2023-04-03T01:11:31;3.53;;;2.13;;
12986;SDS011;58897;51.960;5.582;2023-04-03T01:13:58;5.93;;;1.80;;
12986;SDS011;58897;51.960;5.582;2023-04-03T01:16:25;5.70;;;2.80;;
12986;SDS011;58897;51.960;5.582;2023-04-03T01:18:52;4.90;;;2.10;;
12986;SDS011;58897;51.960;5.582;2023-04-03T01:24:25;6.07;;;2.00;;
12986;SDS011;58897;51.960;5.582;2023-04-03T01:26:58;4.07;;;2.37;;
12986;SDS011;58897;51.960;5.582;2023-04-03T01:29:25;3.60;;;2.03;;
12986;SDS011;58897;51.960;5.582;2023-04-03T01:31:58;8.80;;;3.20;;
12986;SDS011;58897;51.960;5.582;2023-04-03T01:34:27;3.13;;;1.83;;
12986;SDS011;58897;51.960;5.582;2023-04-03T01:36:54;5.77;;;2.40;;
12986;SDS011;58897;51.960;5.582;2023-04-03T01:39:21;4.10;;;2.20;;
12986;SDS011;58897;51.960;5.582;2023-04-03T01:41:48;4.37;;;2.43;;
12986;SDS011;58897;51.960;5.582;2023-04-03T01:44:15;5.23;;;2.30;;
12986;SDS011;58897;51.960;5.582;2023-04-03T01:46:41;5.50;;;2.77;;
12986;SDS011;58897;51.960;5.582;2023-04-03T01:49:08;5.37;;;2.70;;
12986;SDS011;58897;51.960;5.582;2023-04-03T01:51:35;7.23;;;3.70;;
12986;SDS011;58897;51.960;5.582;2023-04-03T01:54:02;7.00;;;2.27;;
12986;SDS011;58897;51.960;5.582;2023-04-03T01:56:29;6.37;;;2.93;;
12986;SDS011;58897;51.960;5.582;2023-04-03T01:58:55;7.47;;;2.00;;
12986;SDS011;58897;51.960;5.582;2023-04-03T02:01:22;5.47;;;2.97;;
12986;SDS011;58897;51.960;5.582;2023-04-03T02:03:48;3.03;;;1.70;;
12986;SDS011;58897;51.960;5.582;2023-04-03T02:06:15;6.47;;;2.40;;
12986;SDS011;58897;51.960;5.582;2023-04-03T02:08:42;6.53;;;2.57;;
12986;SDS011;58897;51.960;5.582;2023-04-03T02:11:08;7.50;;;2.80;;
12986;SDS011;58897;51.960;5.582;2023-04-03T02:13:35;6.13;;;3.13;;
12986;SDS011;58897;51.960;5.582;2023-04-03T02:16:09;5.07;;;2.70;;
12986;SDS011;58897;51.960;5.582;2023-04-03T02:18:36;6.50;;;2.73;;
12986;SDS011;58897;51.960;5.582;2023-04-03T02:21:03;5.47;;;2.73;;
12986;SDS011;58897;51.960;5.582;2023-04-03T02:23:30;5.33;;;3.00;;
12986;SDS011;58897;51.960;5.582;2023-04-03T02:26:04;4.93;;;2.30;;
12986;SDS011;58897;51.960;5.582;2023-04-03T02:28:35;6.10;;;3.27;;
12986;SDS011;58897;51.960;5.582;2023-04-03T02:31:02;5.93;;;2.70;;
12986;SDS011;58897;51.960;5.582;2023-04-03T02:33:29;5.20;;;2.70;;
12986;SDS011;58897;51.960;5.582;2023-04-03T02:35:56;4.73;;;2.37;;
12986;SDS011;58897;51.960;5.582;2023-04-03T02:38:24;5.30;;;2.70;;
12986;SDS011;58897;51.960;5.582;2023-04-03T02:40:51;3.93;;;2.13;;
12986;SDS011;58897;51.960;5.582;2023-04-03T02:43:18;3.73;;;2.30;;
12986;SDS011;58897;51.960;5.582;2023-04-03T02:45:44;4.70;;;2.37;;
12986;SDS011;58897;51.960;5.582;2023-04-03T02:48:11;5.70;;;2.60;;
12986;SDS011;58897;51.960;5.582;2023-04-03T02:50:38;6.50;;;3.43;;
12986;SDS011;58897;51.960;5.582;2023-04-03T02:53:04;5.77;;;2.73;;
12986;SDS011;58897;51.960;5.582;2023-04-03T02:55:31;4.70;;;2.77;;
12986;SDS011;58897;51.960;5.582;2023-04-03T02:57:58;5.47;;;2.80;;
12986;SDS011;58897;51.960;5.582;2023-04-03T03:00:24;4.67;;;2.53;;
12986;SDS011;58897;51.960;5.582;2023-04-03T03:02:54;3.70;;;2.20;;
12986;SDS011;58897;51.960;5.582;2023-04-03T03:05:20;5.00;;;1.77;;
12986;SDS011;58897;51.960;5.582;2023-04-03T03:07:47;5.80;;;2.43;;
12986;SDS011;58897;51.960;5.582;2023-04-03T03:10:14;5.00;;;2.73;;
12986;SDS011;58897;51.960;5.582;2023-04-03T03:12:40;6.27;;;2.60;;
12986;SDS011;58897;51.960;5.582;2023-04-03T03:15:07;5.70;;;2.63;;
12986;SDS011;58897;51.960;5.582;2023-04-03T03:17:36;5.70;;;2.37;;
12986;SDS011;58897;51.960;5.582;2023-04-03T03:20:03;4.20;;;2.30;;
12986;SDS011;58897;51.960;5.582;2023-04-03T03:22:31;5.27;;;2.70;;
12986;SDS011;58897;51.960;5.582;2023-04-03T03:24:58;5.50;;;1.87;;
12986;SDS011;58897;51.960;5.582;2023-04-03T03:27:25;5.53;;;2.40;;
12986;SDS011;58897;51.960;5.582;2023-04-03T03:29:51;4.90;;;2.47;;
12986;SDS011;58897;51.960;5.582;2023-04-03T03:32:18;7.53;;;2.87;;
12986;SDS011;58897;51.960;5.582;2023-04-03T03:34:44;9.10;;;3.27;;
12986;SDS011;58897;51.960;5.582;2023-04-03T03:37:11;5.63;;;2.40;;
12986;SDS011;58897;51.960;5.582;2023-04-03T03:39:39;3.73;;;2.00;;
12986;SDS011;58897;51.960;5.582;2023-04-03T03:42:05;6.40;;;2.50;;
12986;SDS011;58897;51.960;5.582;2023-04-03T03:44:32;4.30;;;2.20;;
12986;SDS011;58897;51.960;5.582;2023-04-03T03:46:58;4.33;;;2.37;;
12986;SDS011;58897;51.960;5.582;2023-04-03T03:49:26;5.70;;;2.80;;
12986;SDS011;58897;51.960;5.582;2023-04-03T03:51:52;4.47;;;2.40;;
12986;SDS011;58897;51.960;5.582;2023-04-03T03:54:18;5.47;;;2.93;;
12986;SDS011;58897;51.960;5.582;2023-04-03T03:56:45;7.57;;;3.60;;
12986;SDS011;58897;51.960;5.582;2023-04-03T03:59:12;5.97;;;3.10;;
12986;SDS011;58897;51.960;5.582;2023-04-03T04:01:38;3.73;;;2.33;;
12986;SDS011;58897;51.960;5.582;2023-04-03T04:04:05;5.00;;;2.80;;
12986;SDS011;58897;51.960;5.582;2023-04-03T04:06:32;6.13;;;2.43;;
12986;SDS011;58897;51.960;5.582;2023-04-03T04:09:08;5.23;;;2.63;;
12986;SDS011;58897;51.960;5.582;2023-04-03T04:11:35;5.17;;;2.83;;
12986;SDS011;58897;51.960;5.582;2023-04-03T04:14:01;6.60;;;2.57;;
12986;SDS011;58897;51.960;5.582;2023-04-03T04:16:28;6.63;;;3.47;;
12986;SDS011;58897;51.960;5.582;2023-04-03T04:18:54;4.83;;;2.57;;
12986;SDS011;58897;51.960;5.582;2023-04-03T04:21:21;7.47;;;2.73;;
12986;SDS011;58897;51.960;5.582;2023-04-03T04:23:48;5.30;;;1.93;;
12986;SDS011;58897;51.960;5.582;2023-04-03T04:26:14;5.93;;;2.73;;
12986;SDS011;58897;51.960;5.582;2023-04-03T04:28:41;6.87;;;2.40;;
12986;SDS011;58897;51.960;5.582;2023-04-03T04:31:08;4.73;;;2.50;;
12986;SDS011;58897;51.960;5.582;2023-04-03T04:33:34;6.07;;;3.00;;
12986;SDS011;58897;51.960;5.582;2023-04-03T04:36:01;6.80;;;3.03;;
12986;SDS011;58897;51.960;5.582;2023-04-03T04:38:28;9.83;;;3.43;;
12986;SDS011;58897;51.960;5.582;2023-04-03T04:40:55;4.90;;;2.70;;
12986;SDS011;58897;51.960;5.582;2023-04-03T04:43:22;4.67;;;2.30;;
12986;SDS011;58897;51.960;5.582;2023-04-03T04:45:48;3.90;;;2.33;;
12986;SDS011;58897;51.960;5.582;2023-04-03T04:48:15;4.83;;;2.23;;
12986;SDS011;58897;51.960;5.582;2023-04-03T04:50:42;3.87;;;1.97;;
12986;SDS011;58897;51.960;5.582;2023-04-03T04:53:09;7.07;;;2.83;;
12986;SDS011;58897;51.960;5.582;2023-04-03T04:55:35;9.87;;;3.60;;
12986;SDS011;58897;51.960;5.582;2023-04-03T04:58:02;6.43;;;2.97;;
12986;SDS011;58897;51.960;5.582;2023-04-03T05:00:29;7.40;;;3.33;;
12986;SDS011;58897;51.960;5.582;2023-04-03T05:02:55;6.57;;;3.20;;
12986;SDS011;58897;51.960;5.582;2023-04-03T05:05:22;6.23;;;2.67;;
12986;SDS011;58897;51.960;5.582;2023-04-03T05:07:49;4.13;;;2.10;;
12986;SDS011;58897;51.960;5.582;2023-04-03T05:10:16;8.07;;;3.30;;
12986;SDS011;58897;51.960;5.582;2023-04-03T05:12:42;5.50;;;2.40;;
12986;SDS011;58897;51.960;5.582;2023-04-03T05:15:09;10.70;;;2.77;;
12986;SDS011;58897;51.960;5.582;2023-04-03T05:17:35;4.17;;;2.37;;
12986;SDS011;58897;51.960;5.582;2023-04-03T05:20:03;8.60;;;3.23;;
12986;SDS011;58897;51.960;5.582;2023-04-03T05:22:31;6.47;;;2.70;;
12986;SDS011;58897;51.960;5.582;2023-04-03T05:24:57;5.70;;;2.70;;
12986;SDS011;58897;51.960;5.582;2023-04-03T05:27:24;4.80;;;2.23;;
12986;SDS011;58897;51.960;5.582;2023-04-03T05:29:52;6.03;;;2.97;;
12986;SDS011;58897;51.960;5.582;2023-04-03T05:32:19;7.83;;;2.63;;
12986;SDS011;58897;51.960;5.582;2023-04-03T05:34:46;6.43;;;3.00;;
12986;SDS011;58897;51.960;5.582;2023-04-03T05:37:13;6.17;;;2.47;;
12986;SDS011;58897;51.960;5.582;2023-04-03T05:39:39;9.43;;;4.00;;
12986;SDS011;58897;51.960;5.582;2023-04-03T05:42:07;6.37;;;2.97;;
12986;SDS011;58897;51.960;5.582;2023-04-03T05:44:34;12.53;;;5.37;;
12986;SDS011;58897;51.960;5.582;2023-04-03T05:47:01;4.57;;;2.43;;
12986;SDS011;58897;51.960;5.582;2023-04-03T05:49:27;10.10;;;3.97;;
12986;SDS011;58897;51.960;5.582;2023-04-03T05:51:54;7.00;;;2.63;;
12986;SDS011;58897;51.960;5.582;2023-04-03T05:54:25;7.03;;;3.20;;
12986;SDS011;58897;51.960;5.582;2023-04-03T05:56:53;4.70;;;2.20;;
12986;SDS011;58897;51.960;5.582;2023-04-03T05:59:20;6.97;;;3.07;;
12986;SDS011;58897;51.960;5.582;2023-04-03T06:01:47;7.80;;;3.27;;
12986;SDS011;58897;51.960;5.582;2023-04-03T06:04:14;11.87;;;3.57;;
12986;SDS011;58897;51.960;5.582;2023-04-03T06:06:42;6.07;;;3.23;;
12986;SDS011;58897;51.960;5.582;2023-04-03T06:09:14;6.27;;;3.00;;
12986;SDS011;58897;51.960;5.582;2023-04-03T06:11:41;6.33;;;3.03;;
12986;SDS011;58897;51.960;5.582;2023-04-03T06:14:08;8.73;;;2.97;;
12986;SDS011;58897;51.960;5.582;2023-04-03T06:16:35;8.80;;;4.20;;
12986;SDS011;58897;51.960;5.582;2023-04-03T06:19:05;5.53;;;2.63;;
12986;SDS011;58897;51.960;5.582;2023-04-03T06:21:32;6.67;;;3.23;;
12986;SDS011;58897;51.960;5.582;2023-04-03T06:23:59;7.20;;;2.67;;
12986;SDS011;58897;51.960;5.582;2023-04-03T06:26:26;4.37;;;2.43;;
12986;SDS011;58897;51.960;5.582;2023-04-03T06:28:53;6.30;;;2.63;;
12986;SDS011;58897;51.960;5.582;2023-04-03T06:31:20;5.20;;;2.17;;
12986;SDS011;58897;51.960;5.582;2023-04-03T06:33:47;3.03;;;1.93;;
12986;SDS011;58897;51.960;5.582;2023-04-03T06:36:13;4.00;;;2.50;;
12986;SDS011;58897;51.960;5.582;2023-04-03T06:38:40;5.53;;;2.27;;
12986;SDS011;58897;51.960;5.582;2023-04-03T06:41:06;6.87;;;2.67;;
12986;SDS011;58897;51.960;5.582;2023-04-03T06:43:33;9.40;;;3.30;;
12986;SDS011;58897;51.960;5.582;2023-04-03T06:46:00;6.80;;;3.10;;
12986;SDS011;58897;51.960;5.582;2023-04-03T06:48:27;6.83;;;2.80;;
12986;SDS011;58897;51.960;5.582;2023-04-03T06:50:53;4.07;;;2.17;;
12986;SDS011;58897;51.960;5.582;2023-04-03T06:53:22;4.47;;;2.03;;
12986;SDS011;58897;51.960;5.582;2023-04-03T06:55:49;5.50;;;2.50;;
12986;SDS011;58897;51.960;5.582;2023-04-03T06:58:15;4.80;;;2.40;;
12986;SDS011;58897;51.960;5.582;2023-04-03T07:00:45;7.77;;;2.80;;
12986;SDS011;58897;51.960;5.582;2023-04-03T07:03:13;7.67;;;3.57;;
12986;SDS011;58897;51.960;5.582;2023-04-03T07:05:39;7.00;;;3.10;;
12986;SDS011;58897;51.960;5.582;2023-04-03T07:08:06;6.40;;;2.50;;
12986;SDS011;58897;51.960;5.582;2023-04-03T07:10:33;4.47;;;2.13;;
12986;SDS011;58897;51.960;5.582;2023-04-03T07:12:59;6.00;;;2.60;;
12986;SDS011;58897;51.960;5.582;2023-04-03T07:15:27;4.47;;;2.53;;
12986;SDS011;58897;51.960;5.582;2023-04-03T07:17:54;4.77;;;2.23;;
12986;SDS011;58897;51.960;5.582;2023-04-03T07:20:20;5.03;;;2.87;;
12986;SDS011;58897;51.960;5.582;2023-04-03T07:22:47;8.37;;;2.90;;
12986;SDS011;58897;51.960;5.582;2023-04-03T07:25:13;8.00;;;2.70;;
12986;SDS011;58897;51.960;5.582;2023-04-03T07:27:40;6.13;;;3.00;;
12986;SDS011;58897;51.960;5.582;2023-04-03T07:30:06;6.73;;;2.73;;
12986;SDS011;58897;51.960;5.582;2023-04-03T07:32:33;4.87;;;2.60;;
12986;SDS011;58897;51.960;5.582;2023-04-03T07:35:00;2.93;;;1.80;;
12986;SDS011;58897;51.960;5.582;2023-04-03T07:37:28;4.03;;;2.30;;
12986;SDS011;58897;51.960;5.582;2023-04-03T07:39:55;7.27;;;2.23;;
12986;SDS011;58897;51.960;5.582;2023-04-03T07:42:23;3.37;;;2.07;;
12986;SDS011;58897;51.960;5.582;2023-04-03T07:44:51;4.70;;;2.30;;
12986;SDS011;58897;51.960;5.582;2023-04-03T07:47:19;5.50;;;2.70;;
12986;SDS011;58897;51.960;5.582;2023-04-03T07:49:47;6.67;;;2.60;;
12986;SDS011;58897;51.960;5.582;2023-04-03T07:52:16;3.37;;;1.97;;
12986;SDS011;58897;51.960;5.582;2023-04-03T07:54:42;4.10;;;2.27;;
12986;SDS011;58897;51.960;5.582;2023-04-03T07:57:09;2.17;;;1.40;;
12986;SDS011;58897;51.960;5.582;2023-04-03T07:59:36;7.90;;;2.33;;
12986;SDS011;58897;51.960;5.582;2023-04-03T08:02:02;6.20;;;2.33;;
12986;SDS011;58897;51.960;5.582;2023-04-03T08:04:31;4.63;;;2.30;;
12986;SDS011;58897;51.960;5.582;2023-04-03T08:06:58;5.13;;;2.50;;
12986;SDS011;58897;51.960;5.582;2023-04-03T08:09:24;4.13;;;2.07;;
12986;SDS011;58897;51.960;5.582;2023-04-03T08:11:51;4.03;;;1.90;;
12986;SDS011;58897;51.960;5.582;2023-04-03T08:14:19;4.90;;;2.33;;
12986;SDS011;58897;51.960;5.582;2023-04-03T08:16:47;4.27;;;2.07;;
12986;SDS011;58897;51.960;5.582;2023-04-03T08:19:14;2.53;;;1.47;;
12986;SDS011;58897;51.960;5.582;2023-04-03T08:21:51;4.73;;;2.10;;
12986;SDS011;58897;51.960;5.582;2023-04-03T08:24:18;5.33;;;2.33;;
12986;SDS011;58897;51.960;5.582;2023-04-03T08:26:44;4.07;;;2.23;;
12986;SDS011;58897;51.960;5.582;2023-04-03T08:29:11;2.53;;;1.50;;
12986;SDS011;58897;51.960;5.582;2023-04-03T08:31:39;3.00;;;1.83;;
12986;SDS011;58897;51.960;5.582;2023-04-03T08:34:05;3.63;;;1.43;;
12986;SDS011;58897;51.960;5.582;2023-04-03T08:36:32;3.37;;;1.83;;
12986;SDS011;58897;51.960;5.582;2023-04-03T08:38:59;1.80;;;1.30;;
12986;SDS011;58897;51.960;5.582;2023-04-03T08:41:41;2.90;;;1.40;;
12986;SDS011;58897;51.960;5.582;2023-04-03T08:49:48;3.00;;;1.87;;
12986;SDS011;58897;51.960;5.582;2023-04-03T08:55:04;2.53;;;1.43;;
12986;SDS011;58897;51.960;5.582;2023-04-03T08:57:39;2.87;;;1.50;;
12986;SDS011;58897;51.960;5.582;2023-04-03T09:02:44;2.10;;;1.30;;
12986;SDS011;58897;51.960;5.582;2023-04-03T09:05:15;2.53;;;1.10;;
12986;SDS011;58897;51.960;5.582;2023-04-03T09:07:56;1.10;;;0.97;;
12986;SDS011;58897;51.960;5.582;2023-04-03T09:10:30;4.23;;;1.60;;
12986;SDS011;58897;51.960;5.582;2023-04-03T09:13:05;2.77;;;1.43;;
12986;SDS011;58897;51.960;5.582;2023-04-03T09:15:39;2.80;;;1.40;;
12986;SDS011;58897;51.960;5.582;2023-04-03T09:18:15;1.73;;;1.00;;
12986;SDS011;58897;51.960;5.582;2023-04-03T09:21:03;1.50;;;1.17;;
12986;SDS011;58897;51.960;5.582;2023-04-03T09:23:44;1.87;;;1.23;;
12986;SDS011;58897;51.960;5.582;2023-04-03T09:26:24;1.33;;;1.13;;
12986;SDS011;58897;51.960;5.582;2023-04-03T09:28:55;2.70;;;1.10;;
12986;SDS011;58897;51.960;5.582;2023-04-03T09:31:46;1.40;;;1.17;;
12986;SDS011;58897;51.960;5.582;2023-04-03T09:36:51;1.90;;;1.00;;
12986;SDS011;58897;51.960;5.582;2023-04-03T09:39:20;0.73;;;0.73;;
12986;SDS011;58897;51.960;5.582;2023-04-03T09:44:33;2.20;;;1.30;;
12986;SDS011;58897;51.960;5.582;2023-04-03T09:47:35;1.43;;;0.90;;
12986;SDS011;58897;51.960;5.582;2023-04-03T09:52:46;1.93;;;1.13;;
12986;SDS011;58897;51.960;5.582;2023-04-03T09:55:25;1.37;;;1.00;;
12986;SDS011;58897;51.960;5.582;2023-04-03T09:57:55;1.50;;;0.90;;
12986;SDS011;58897;51.960;5.582;2023-04-03T10:00:25;2.10;;;1.30;;
12986;SDS011;58897;51.960;5.582;2023-04-03T10:02:55;1.83;;;1.20;;
12986;SDS011;58897;51.960;5.582;2023-04-03T10:05:33;1.20;;;0.97;;
12986;SDS011;58897;51.960;5.582;2023-04-03T10:08:09;1.20;;;0.90;;
12986;SDS011;58897;51.960;5.582;2023-04-03T10:10:46;1.60;;;1.10;;
12986;SDS011;58897;51.960;5.582;2023-04-03T10:13:17;1.37;;;1.17;;
12986;SDS011;58897;51.960;5.582;2023-04-03T10:15:49;1.33;;;1.10;;
12986;SDS011;58897;51.960;5.582;2023-04-03T10:20:57;1.20;;;1.00;;
12986;SDS011;58897;51.960;5.582;2023-04-03T10:23:44;2.30;;;1.40;;
12986;SDS011;58897;51.960;5.582;2023-04-03T10:26:31;1.13;;;0.80;;
12986;SDS011;58897;51.960;5.582;2023-04-03T10:31:56;1.70;;;1.40;;
12986;SDS011;58897;51.960;5.582;2023-04-03T10:34:45;2.47;;;1.03;;
12986;SDS011;58897;51.960;5.582;2023-04-03T10:37:30;1.73;;;1.30;;
12986;SDS011;58897;51.960;5.582;2023-04-03T10:43:41;1.27;;;1.00;;
12986;SDS011;58897;51.960;5.582;2023-04-03T10:46:11;2.47;;;1.20;;
12986;SDS011;58897;51.960;5.582;2023-04-03T10:56:47;1.47;;;1.20;;
12986;SDS011;58897;51.960;5.582;2023-04-03T10:59:37;2.77;;;1.63;;
12986;SDS011;58897;51.960;5.582;2023-04-03T11:02:16;2.10;;;1.23;;
12986;SDS011;58897;51.960;5.582;2023-04-03T11:05:07;2.13;;;1.20;;
12986;SDS011;58897;51.960;5.582;2023-04-03T11:07:48;3.70;;;1.53;;
12986;SDS011;58897;51.960;5.582;2023-04-03T11:10:23;3.50;;;1.17;;
12986;SDS011;58897;51.960;5.582;2023-04-03T11:13:16;1.60;;;1.03;;
12986;SDS011;58897;51.960;5.582;2023-04-03T11:15:47;3.00;;;1.53;;
12986;SDS011;58897;51.960;5.582;2023-04-03T11:18:17;2.53;;;1.63;;
12986;SDS011;58897;51.960;5.582;2023-04-03T11:20:50;1.90;;;1.20;;
12986;SDS011;58897;51.960;5.582;2023-04-03T11:23:25;2.73;;;1.20;;
12986;SDS011;58897;51.960;5.582;2023-04-03T11:26:14;3.00;;;2.10;;
12986;SDS011;58897;51.960;5.582;2023-04-03T11:28:43;2.97;;;1.57;;
12986;SDS011;58897;51.960;5.582;2023-04-03T11:34:17;3.50;;;1.77;;
12986;SDS011;58897;51.960;5.582;2023-04-03T11:36:47;3.13;;;1.40;;
12986;SDS011;58897;51.960;5.582;2023-04-03T11:39:18;3.43;;;1.53;;
12986;SDS011;58897;51.960;5.582;2023-04-03T11:45:14;3.17;;;1.57;;
12986;SDS011;58897;51.960;5.582;2023-04-03T11:47:45;2.77;;;1.30;;
12986;SDS011;58897;51.960;5.582;2023-04-03T11:55:44;2.03;;;1.40;;
12986;SDS011;58897;51.960;5.582;2023-04-03T12:00:58;1.80;;;1.50;;
12986;SDS011;58897;51.960;5.582;2023-04-03T12:16:21;2.33;;;1.23;;
12986;SDS011;58897;51.960;5.582;2023-04-03T12:37:54;1.50;;;1.20;;
12986;SDS011;58897;51.960;5.582;2023-04-03T12:45:49;2.17;;;1.10;;
12986;SDS011;58897;51.960;5.582;2023-04-03T12:48:24;2.53;;;1.50;;
12986;SDS011;58897;51.960;5.582;2023-04-03T12:50:52;12.13;;;2.13;;
12986;SDS011;58897;51.960;5.582;2023-04-03T12:53:33;3.33;;;1.00;;
12986;SDS011;58897;51.960;5.582;2023-04-03T12:58:50;3.27;;;1.50;;
12986;SDS011;58897;51.960;5.582;2023-04-03T13:01:22;2.80;;;1.70;;
12986;SDS011;58897;51.960;5.582;2023-04-03T13:03:57;1.97;;;1.47;;
12986;SDS011;58897;51.960;5.582;2023-04-03T13:06:26;3.00;;;2.00;;
12986;SDS011;58897;51.960;5.582;2023-04-03T13:08:58;3.87;;;2.40;;
12986;SDS011;58897;51.960;5.582;2023-04-03T13:11:27;3.97;;;1.50;;
12986;SDS011;58897;51.960;5.582;2023-04-03T13:13:59;7.47;;;2.33;;
12986;SDS011;58897;51.960;5.582;2023-04-03T13:16:28;2.10;;;1.13;;
12986;SDS011;58897;51.960;5.582;2023-04-03T13:18:55;13.57;;;2.00;;
12986;SDS011;58897;51.960;5.582;2023-04-03T13:21:29;3.40;;;1.43;;
12986;SDS011;58897;51.960;5.582;2023-04-03T13:24:00;1.67;;;1.20;;
12986;SDS011;58897;51.960;5.582;2023-04-03T13:26:41;2.80;;;2.00;;
12986;SDS011;58897;51.960;5.582;2023-04-03T13:29:17;2.20;;;1.50;;
12986;SDS011;58897;51.960;5.582;2023-04-03T13:31:56;1.60;;;1.07;;
12986;SDS011;58897;51.960;5.582;2023-04-03T13:34:25;4.00;;;1.23;;
12986;SDS011;58897;51.960;5.582;2023-04-03T13:36:59;2.27;;;1.37;;
12986;SDS011;58897;51.960;5.582;2023-04-03T13:39:31;2.07;;;1.60;;
12986;SDS011;58897;51.960;5.582;2023-04-03T13:42:00;1.50;;;1.40;;
12986;SDS011;58897;51.960;5.582;2023-04-03T13:44:40;1.80;;;1.20;;
12986;SDS011;58897;51.960;5.582;2023-04-03T13:49:40;2.40;;;1.50;;
12986;SDS011;58897;51.960;5.582;2023-04-03T13:52:32;3.00;;;1.83;;
12986;SDS011;58897;51.960;5.582;2023-04-03T13:55:20;4.90;;;1.20;;
12986;SDS011;58897;51.960;5.582;2023-04-03T13:57:57;3.60;;;1.97;;
12986;SDS011;58897;51.960;5.582;2023-04-03T14:03:30;2.83;;;1.20;;
12986;SDS011;58897;51.960;5.582;2023-04-03T14:05:57;3.83;;;2.30;;
12986;SDS011;58897;51.960;5.582;2023-04-03T14:08:25;4.17;;;1.83;;
12986;SDS011;58897;51.960;5.582;2023-04-03T14:11:19;1.93;;;1.40;;
12986;SDS011;58897;51.960;5.582;2023-04-03T14:13:50;2.33;;;1.73;;
12986;SDS011;58897;51.960;5.582;2023-04-03T14:16:21;3.43;;;1.03;;
12986;SDS011;58897;51.960;5.582;2023-04-03T14:18:49;3.57;;;2.27;;
12986;SDS011;58897;51.960;5.582;2023-04-03T14:21:18;2.43;;;1.40;;
12986;SDS011;58897;51.960;5.582;2023-04-03T14:23:46;1.70;;;1.60;;
12986;SDS011;58897;51.960;5.582;2023-04-03T14:26:18;2.17;;;1.40;;
12986;SDS011;58897;51.960;5.582;2023-04-03T14:28:48;2.87;;;1.47;;
12986;SDS011;58897;51.960;5.582;2023-04-03T14:31:18;2.60;;;1.73;;
12986;SDS011;58897;51.960;5.582;2023-04-03T14:33:46;4.30;;;2.10;;
12986;SDS011;58897;51.960;5.582;2023-04-03T14:36:20;3.30;;;1.83;;
12986;SDS011;58897;51.960;5.582;2023-04-03T14:38:49;2.70;;;1.50;;
12986;SDS011;58897;51.960;5.582;2023-04-03T14:41:17;3.13;;;1.37;;
12986;SDS011;58897;51.960;5.582;2023-04-03T14:43:48;2.87;;;1.67;;
12986;SDS011;58897;51.960;5.582;2023-04-03T14:46:16;3.40;;;1.53;;
12986;SDS011;58897;51.960;5.582;2023-04-03T14:48:45;9.07;;;2.77;;
12986;SDS011;58897;51.960;5.582;2023-04-03T14:51:12;3.57;;;2.30;;
12986;SDS011;58897;51.960;5.582;2023-04-03T14:53:40;2.13;;;1.57;;
12986;SDS011;58897;51.960;5.582;2023-04-03T14:56:12;2.57;;;1.57;;
12986;SDS011;58897;51.960;5.582;2023-04-03T14:58:52;9.93;;;2.43;;
12986;SDS011;58897;51.960;5.582;2023-04-03T15:01:21;9.27;;;1.83;;
12986;SDS011;58897;51.960;5.582;2023-04-03T15:03:48;4.47;;;2.20;;
12986;SDS011;58897;51.960;5.582;2023-04-03T15:06:15;4.60;;;1.97;;
12986;SDS011;58897;51.960;5.582;2023-04-03T15:08:42;3.07;;;2.00;;
12986;SDS011;58897;51.960;5.582;2023-04-03T15:11:10;2.87;;;1.50;;
12986;SDS011;58897;51.960;5.582;2023-04-03T15:13:39;3.13;;;1.50;;
12986;SDS011;58897;51.960;5.582;2023-04-03T15:16:10;3.80;;;1.70;;
12986;SDS011;58897;51.960;5.582;2023-04-03T15:18:41;2.77;;;1.73;;
12986;SDS011;58897;51.960;5.582;2023-04-03T15:21:07;2.80;;;1.70;;
12986;SDS011;58897;51.960;5.582;2023-04-03T15:23:34;3.90;;;2.30;;
12986;SDS011;58897;51.960;5.582;2023-04-03T15:26:00;5.47;;;2.50;;
12986;SDS011;58897;51.960;5.582;2023-04-03T15:28:35;2.40;;;1.83;;
12986;SDS011;58897;51.960;5.582;2023-04-03T15:31:03;4.07;;;1.77;;
12986;SDS011;58897;51.960;5.582;2023-04-03T15:33:32;3.17;;;2.23;;
12986;SDS011;58897;51.960;5.582;2023-04-03T15:35:59;2.53;;;1.40;;
12986;SDS011;58897;51.960;5.582;2023-04-03T15:38:42;3.93;;;2.33;;
12986;SDS011;58897;51.960;5.582;2023-04-03T15:41:08;4.37;;;1.97;;
12986;SDS011;58897;51.960;5.582;2023-04-03T15:43:35;2.67;;;1.63;;
12986;SDS011;58897;51.960;5.582;2023-04-03T15:46:02;4.67;;;1.73;;
12986;SDS011;58897;51.960;5.582;2023-04-03T15:48:28;3.17;;;1.60;;
12986;SDS011;58897;51.960;5.582;2023-04-03T15:50:55;3.13;;;2.30;;
12986;SDS011;58897;51.960;5.582;2023-04-03T15:53:24;6.03;;;1.93;;
12986;SDS011;58897;51.960;5.582;2023-04-03T15:55:51;3.57;;;1.83;;
12986;SDS011;58897;51.960;5.582;2023-04-03T15:58:18;6.83;;;2.77;;
12986;SDS011;58897;51.960;5.582;2023-04-03T16:00:44;5.73;;;2.10;;
12986;SDS011;58897;51.960;5.582;2023-04-03T16:03:12;4.17;;;1.80;;
12986;SDS011;58897;51.960;5.582;2023-04-03T16:05:42;2.63;;;1.53;;
12986;SDS011;58897;51.960;5.582;2023-04-03T16:08:08;4.10;;;2.00;;
12986;SDS011;58897;51.960;5.582;2023-04-03T16:10:37;2.80;;;1.60;;
12986;SDS011;58897;51.960;5.582;2023-04-03T16:13:05;2.20;;;1.50;;
12986;SDS011;58897;51.960;5.582;2023-04-03T16:15:33;2.97;;;2.07;;
12986;SDS011;58897;51.960;5.582;2023-04-03T16:18:01;4.13;;;2.33;;
12986;SDS011;58897;51.960;5.582;2023-04-03T16:20:28;5.13;;;2.83;;
12986;SDS011;58897;51.960;5.582;2023-04-03T16:22:57;5.53;;;1.70;;
12986;SDS011;58897;51.960;5.582;2023-04-03T16:25:25;4.70;;;1.67;;
12986;SDS011;58897;51.960;5.582;2023-04-03T16:27:52;4.10;;;1.70;;
12986;SDS011;58897;51.960;5.582;2023-04-03T16:30:19;2.40;;;1.73;;
12986;SDS011;58897;51.960;5.582;2023-04-03T16:32:46;2.60;;;1.73;;
12986;SDS011;58897;51.960;5.582;2023-04-03T16:35:12;3.43;;;1.70;;
12986;SDS011;58897;51.960;5.582;2023-04-03T16:37:39;3.87;;;1.67;;
12986;SDS011;58897;51.960;5.582;2023-04-03T16:40:06;3.63;;;2.10;;
12986;SDS011;58897;51.960;5.582;2023-04-03T16:42:33;2.97;;;1.57;;